Time;durP1;ratioP1;P1;durP2;ratioP2;P2;SDS_P1;SDS_P2;PMS_P1;PMS_P2;Temp;Humidity;BMP_temperature;BMP_pressure;BME280_temperature;BME280_humidity;BME280_pressure;Samples;Min_cycle;Max_cycle;Signal;HPM_P1;HPM_P2
2021/06/04 00:02:29;;;;;;;1.30;1.10;;;29.40;59.20;;;;;;5167790;27;20752;-42
2021/06/04 00:04:59;;;;;;;0.83;0.83;;;29.20;60.30;;;;;;5167333;27;20951;-40
2021/06/04 00:07:30;;;;;;;1.00;1.00;;;29.10;61.40;;;;;;5167553;27;20453;-40
2021/06/04 00:10:00;;;;;;;1.27;0.83;;;29.10;60.90;;;;;;5167435;27;20459;-40
2021/06/04 00:12:31;;;;;;;2.77;1.20;;;28.90;61.60;;;;;;5166822;27;20463;-41
2021/06/04 00:15:05;;;;;;;1.80;0.87;;;28.90;59.80;;;;;;5168352;27;20446;-41
2021/06/04 00:17:36;;;;;;;1.10;0.90;;;28.70;59.90;;;;;;5166271;27;20450;-40
2021/06/04 00:20:11;;;;;;;1.57;1.00;;;28.70;60.30;;;;;;5161430;27;20444;-39
2021/06/04 00:22:42;;;;;;;0.90;0.90;;;28.60;60.20;;;;;;5167005;27;20792;-39
2021/06/04 00:25:12;;;;;;;1.00;0.90;;;28.50;62.00;;;;;;5166735;27;20540;-40
2021/06/04 00:27:43;;;;;;;1.07;1.07;;;28.50;62.00;;;;;;5166521;27;20466;-40
2021/06/04 00:30:17;;;;;;;1.20;1.10;;;28.30;62.70;;;;;;5167726;27;20828;-40
2021/06/04 00:32:48;;;;;;;1.00;1.00;;;28.30;63.50;;;;;;5166903;27;20442;-40
2021/06/04 00:35:19;;;;;;;1.23;1.00;;;28.20;63.10;;;;;;5166516;27;20455;-39
2021/06/04 00:37:50;;;;;;;1.40;1.30;;;28.10;64.00;;;;;;5165602;27;20469;-41
2021/06/04 00:40:30;;;;;;;1.83;1.20;;;28.00;65.10;;;;;;5166306;27;20451;-41
2021/06/04 00:43:01;;;;;;;2.70;1.00;;;27.90;66.30;;;;;;5161285;27;20451;-40
2021/06/04 00:45:36;;;;;;;1.37;1.10;;;27.90;65.00;;;;;;5164637;27;20490;-40
2021/06/04 00:48:08;;;;;;;1.53;1.00;;;27.60;65.00;;;;;;5166897;27;20461;-40
2021/06/04 00:50:43;;;;;;;1.00;0.90;;;27.50;66.50;;;;;;5165922;27;20465;-39
2021/06/04 00:53:14;;;;;;;1.37;1.27;;;27.50;65.60;;;;;;5166157;27;20465;-40
2021/06/04 00:55:45;;;;;;;2.60;1.70;;;27.40;65.30;;;;;;5165485;27;20478;-40
2021/06/04 00:58:20;;;;;;;1.43;1.00;;;27.40;65.10;;;;;;5165752;27;20444;-40
2021/06/04 01:00:54;;;;;;;1.20;1.10;;;27.30;65.10;;;;;;5166477;27;20436;-40
2021/06/04 01:03:27;;;;;;;1.23;1.10;;;27.20;66.20;;;;;;5162472;27;20421;-40
2021/06/04 01:06:07;;;;;;;1.50;1.40;;;27.20;65.40;;;;;;5162606;27;20460;-40
2021/06/04 01:08:57;;;;;;;1.67;1.53;;;27.10;66.10;;;;;;5165558;27;20467;-41
2021/06/04 01:11:47;;;;;;;1.40;1.20;;;27.10;66.80;;;;;;5163637;27;20477;-41
2021/06/04 01:14:28;;;;;;;1.50;1.40;;;27.00;67.70;;;;;;5166598;27;20460;-41
2021/06/04 01:17:06;;;;;;;1.40;1.30;;;27.00;67.30;;;;;;5165890;27;20766;-40
2021/06/04 01:19:46;;;;;;;1.80;1.70;;;26.90;67.30;;;;;;5165701;27;20935;-41
2021/06/04 01:22:26;;;;;;;1.53;1.43;;;26.70;68.10;;;;;;5165849;27;20453;-41
2021/06/04 01:25:26;;;;;;;1.23;1.23;;;26.70;68.60;;;;;;5164380;27;20570;-41
2021/06/04 01:28:00;;;;;;;1.97;1.87;;;26.60;68.50;;;;;;5160455;27;20492;-40
2021/06/04 01:30:35;;;;;;;3.60;2.33;;;26.60;68.80;;;;;;5166059;27;20504;-40
2021/06/04 01:33:09;;;;;;;2.70;2.50;;;26.50;68.70;;;;;;5165220;27;20442;-40
2021/06/04 01:35:44;;;;;;;1.70;1.60;;;26.40;69.40;;;;;;5150339;27;20454;-40
2021/06/04 01:38:20;;;;;;;2.10;1.97;;;26.30;70.10;;;;;;5165582;27;20472;-40
2021/06/04 01:40:53;;;;;;;1.93;1.40;;;26.30;70.70;;;;;;5162554;27;20436;-40
2021/06/04 01:43:33;;;;;;;2.50;1.60;;;26.30;70.60;;;;;;5165695;27;20450;-39
2021/06/04 01:46:08;;;;;;;2.50;1.70;;;26.30;71.10;;;;;;5165733;27;20431;-40
2021/06/04 01:48:42;;;;;;;1.70;1.60;;;26.20;71.30;;;;;;5164833;27;20543;-40
2021/06/04 01:51:21;;;;;;;2.53;1.77;;;26.10;71.00;;;;;;5161284;27;20443;-41
2021/06/04 01:53:55;;;;;;;1.70;1.60;;;26.10;72.80;;;;;;5165607;27;20448;-41
2021/06/04 01:56:30;;;;;;;2.10;1.63;;;25.90;73.30;;;;;;5163958;27;20535;-41
2021/06/04 01:59:06;;;;;;;1.43;1.20;;;26.00;73.20;;;;;;5158194;27;20504;-41
2021/06/04 02:01:39;;;;;;;2.13;2.03;;;26.00;73.70;;;;;;5165431;27;20436;-41
2021/06/04 02:04:19;;;;;;;1.97;1.77;;;25.80;73.80;;;;;;5165495;27;20571;-41
2021/06/04 02:06:50;;;;;;;3.10;2.90;;;25.70;74.80;;;;;;5164386;27;20458;-41
2021/06/04 02:09:23;;;;;;;3.00;2.80;;;25.70;76.10;;;;;;5165004;27;20455;-40
2021/06/04 02:11:53;;;;;;;2.60;2.40;;;25.80;76.70;;;;;;5164147;27;20452;-40
2021/06/04 02:14:30;;;;;;;2.27;2.17;;;25.70;77.30;;;;;;5164929;27;20500;-40
2021/06/04 02:17:13;;;;;;;4.80;4.50;;;25.70;78.20;;;;;;5164263;27;20436;-41
2021/06/04 02:19:56;;;;;;;1.50;1.40;;;25.70;79.20;;;;;;5165184;27;20553;-40
2021/06/04 02:22:32;;;;;;;1.27;1.17;;;25.70;78.90;;;;;;5164639;27;20428;-41
2021/06/04 02:25:11;;;;;;;1.70;1.60;;;25.60;80.10;;;;;;5164964;27;20480;-41
2021/06/04 02:27:47;;;;;;;2.47;1.40;;;25.50;80.80;;;;;;5164095;27;20452;-40
2021/06/04 02:30:24;;;;;;;2.10;1.10;;;25.30;81.80;;;;;;5164644;27;20466;-40
2021/06/04 02:33:03;;;;;;;0.90;0.90;;;25.00;83.60;;;;;;5148373;27;20539;-40
2021/06/04 02:35:39;;;;;;;1.60;1.50;;;24.70;84.60;;;;;;5162982;27;20504;-40
2021/06/04 02:38:17;;;;;;;1.37;1.27;;;24.60;85.70;;;;;;5163889;27;20471;-40
2021/06/04 02:40:50;;;;;;;2.60;1.23;;;24.40;86.00;;;;;;5162073;27;20436;-41
2021/06/04 02:43:24;;;;;;;1.97;1.30;;;24.20;86.20;;;;;;5151828;27;20474;-40
2021/06/04 02:46:03;;;;;;;1.50;1.10;;;24.10;87.30;;;;;;5158843;27;20479;-41
2021/06/04 02:48:34;;;;;;;1.90;1.33;;;23.80;88.40;;;;;;5163887;27;20454;-41
2021/06/04 02:51:10;;;;;;;1.23;1.13;;;23.60;89.90;;;;;;5163497;27;20463;-41
2021/06/04 02:53:47;;;;;;;1.00;1.00;;;23.60;90.10;;;;;;5163946;27;20448;-41
2021/06/04 02:56:26;;;;;;;1.10;1.10;;;23.40;90.60;;;;;;5175916;27;20458;-41
2021/06/04 02:58:59;;;;;;;1.40;1.30;;;23.40;91.40;;;;;;5175545;27;20448;-41
2021/06/04 03:01:34;;;;;;;1.20;1.10;;;23.40;91.70;;;;;;5163805;27;20473;-42
2021/06/04 03:04:06;;;;;;;1.10;1.00;;;23.30;92.00;;;;;;5163714;27;20531;-42
2021/06/04 03:06:40;;;;;;;1.20;1.07;;;23.20;92.80;;;;;;5163966;27;20599;-41
2021/06/04 03:09:12;;;;;;;1.23;1.13;;;23.10;93.10;;;;;;5154709;27;20440;-42
2021/06/04 03:11:44;;;;;;;1.13;0.97;;;23.00;93.80;;;;;;5163303;27;20451;-42
2021/06/04 03:14:17;;;;;;;1.10;1.00;;;22.80;94.10;;;;;;5159592;27;20458;-42
2021/06/04 03:16:50;;;;;;;1.43;1.00;;;22.80;94.10;;;;;;5164353;27;20452;-42
2021/06/04 03:19:22;;;;;;;1.27;1.17;;;22.60;94.30;;;;;;5163465;27;20763;-42
2021/06/04 03:21:55;;;;;;;1.90;1.10;;;22.30;95.40;;;;;;5163557;27;20480;-42
2021/06/04 03:24:31;;;;;;;0.93;0.93;;;22.20;95.60;;;;;;5155385;27;20498;-41
2021/06/04 03:27:03;;;;;;;2.90;0.83;;;22.10;96.00;;;;;;5163232;27;20437;-40
2021/06/04 03:29:33;;;;;;;2.00;0.70;;;21.90;96.20;;;;;;5164176;27;20543;-41
2021/06/04 03:32:08;;;;;;;0.97;0.90;;;21.70;96.90;;;;;;5163133;27;20451;-41
2021/06/04 03:34:41;;;;;;;2.70;1.27;;;21.60;97.50;;;;;;5164097;27;20441;-41
2021/06/04 03:37:13;;;;;;;1.30;1.20;;;21.50;97.90;;;;;;5163768;27;20462;-41
2021/06/04 03:39:46;;;;;;;2.60;1.00;;;21.40;98.10;;;;;;5163930;27;20474;-41
2021/06/04 03:42:20;;;;;;;0.97;0.77;;;21.20;98.30;;;;;;5147695;27;20443;-41
2021/06/04 03:44:51;;;;;;;1.00;0.90;;;21.20;99.20;;;;;;5162005;27;20475;-41
2021/06/04 03:47:23;;;;;;;0.90;0.90;;;21.00;99.20;;;;;;5164210;27;20788;-40
2021/06/04 03:49:54;;;;;;;1.17;1.00;;;20.90;99.80;;;;;;5157581;27;20419;-41
2021/06/04 03:52:26;;;;;;;1.80;0.60;;;20.90;99.90;;;;;;5160741;27;20480;-41
2021/06/04 03:54:59;;;;;;;2.40;1.07;;;20.80;99.90;;;;;;5167934;27;20441;-41
2021/06/04 03:57:33;;;;;;;2.80;1.43;;;20.70;99.90;;;;;;5157602;27;20426;-41
2021/06/04 04:00:07;;;;;;;1.10;1.00;;;20.50;99.90;;;;;;5158935;27;20440;-41
2021/06/04 04:02:39;;;;;;;1.53;0.80;;;20.40;99.90;;;;;;5162233;27;20429;-41
2021/06/04 04:05:11;;;;;;;1.23;1.10;;;20.40;99.90;;;;;;5167507;27;20446;-41
2021/06/04 04:07:42;;;;;;;1.67;1.10;;;20.40;99.90;;;;;;5166696;27;20537;-41
2021/06/04 04:10:13;;;;;;;2.00;0.87;;;20.30;99.90;;;;;;5164572;27;20427;-41
2021/06/04 04:12:44;;;;;;;1.27;0.87;;;20.20;99.90;;;;;;5163513;27;20435;-42
2021/06/04 04:15:17;;;;;;;1.43;1.23;;;20.10;99.90;;;;;;5167297;27;20444;-41
2021/06/04 04:17:51;;;;;;;1.47;1.00;;;20.00;99.90;;;;;;5167315;27;20447;-42
2021/06/04 04:20:24;;;;;;;1.73;1.03;;;20.00;99.90;;;;;;5167244;27;20500;-42
2021/06/04 04:22:56;;;;;;;1.23;1.00;;;19.80;99.90;;;;;;5167353;27;20419;-41
2021/06/04 04:25:28;;;;;;;1.80;1.10;;;19.70;99.90;;;;;;5167745;27;20480;-41
2021/06/04 04:27:58;;;;;;;2.03;1.37;;;19.60;99.90;;;;;;5165638;27;20455;-42
2021/06/04 04:30:29;;;;;;;0.87;0.87;;;19.50;99.90;;;;;;5166941;27;20432;-41
2021/06/04 04:33:01;;;;;;;1.13;1.03;;;19.40;99.90;;;;;;5166431;27;20448;-41
2021/06/04 04:35:34;;;;;;;1.20;1.10;;;19.40;99.90;;;;;;5166200;27;20469;-41
2021/06/04 04:38:07;;;;;;;2.00;1.23;;;19.40;99.90;;;;;;5160720;27;20454;-41
2021/06/04 04:40:40;;;;;;;1.60;1.50;;;19.30;99.90;;;;;;5172544;27;20430;-42
2021/06/04 04:43:11;;;;;;;3.30;1.23;;;19.40;99.90;;;;;;5159825;27;20477;-41
2021/06/04 04:45:41;;;;;;;2.93;1.43;;;19.20;99.90;;;;;;5162561;27;20506;-41
2021/06/04 04:48:14;;;;;;;1.77;1.67;;;19.20;99.90;;;;;;5161008;27;20486;-41
2021/06/04 04:50:44;;;;;;;2.87;1.37;;;19.10;99.90;;;;;;5166235;27;20513;-41
2021/06/04 04:53:15;;;;;;;1.70;1.60;;;19.10;99.90;;;;;;5172036;27;20430;-41
2021/06/04 04:55:45;;;;;;;2.33;1.70;;;19.00;99.90;;;;;;5173415;27;20455;-41
2021/06/04 04:58:16;;;;;;;1.70;1.60;;;19.00;99.90;;;;;;5175245;27;20443;-41
2021/06/04 05:00:47;;;;;;;1.70;1.60;;;19.00;99.90;;;;;;5173145;27;20482;-41
2021/06/04 05:03:21;;;;;;;1.43;1.33;;;19.00;99.90;;;;;;5172346;27;20426;-41
2021/06/04 05:05:52;;;;;;;2.30;1.60;;;19.00;99.90;;;;;;5175687;27;20860;-40
2021/06/04 05:08:23;;;;;;;3.20;1.80;;;18.90;99.90;;;;;;5176343;27;20451;-40
2021/06/04 05:10:56;;;;;;;3.10;1.70;;;18.90;99.90;;;;;;5163942;27;20986;-41
2021/06/04 05:13:26;;;;;;;1.93;1.27;;;18.90;99.90;;;;;;5166142;27;20440;-40
2021/06/04 05:15:59;;;;;;;1.87;1.60;;;18.80;99.90;;;;;;5163542;27;20455;-40
2021/06/04 05:18:32;;;;;;;1.60;1.50;;;18.80;99.90;;;;;;5165493;27;20485;-41
2021/06/04 05:21:03;;;;;;;2.23;1.97;;;18.70;99.90;;;;;;5164640;27;20415;-41
2021/06/04 05:23:34;;;;;;;2.37;1.70;;;18.70;99.90;;;;;;5165923;27;20492;-41
2021/06/04 05:26:05;;;;;;;2.00;1.57;;;18.60;99.90;;;;;;5165063;27;20490;-41
2021/06/04 05:28:38;;;;;;;2.10;1.40;;;18.60;99.90;;;;;;5165388;27;20444;-41
2021/06/04 05:31:11;;;;;;;2.00;1.50;;;18.60;99.90;;;;;;5164306;27;20411;-41
2021/06/04 05:33:45;;;;;;;1.67;1.57;;;18.60;99.90;;;;;;5165659;27;20448;-41
2021/06/04 05:36:18;;;;;;;2.97;1.50;;;18.60;99.90;;;;;;5165724;27;20535;-41
2021/06/04 05:41:39;;;;;;;1.60;1.50;;;18.40;99.90;;;;;;5165054;27;20512;-41
2021/06/04 05:44:18;;;;;;;1.50;1.40;;;18.30;99.90;;;;;;5164999;27;20444;-41
2021/06/04 05:46:52;;;;;;;2.87;1.77;;;18.20;99.90;;;;;;5155020;27;20447;-41
2021/06/04 05:49:25;;;;;;;1.60;1.50;;;18.20;99.90;;;;;;5165237;27;20813;-42
2021/06/04 05:51:56;;;;;;;2.10;1.43;;;18.20;99.90;;;;;;5165546;27;20481;-41
2021/06/04 05:54:28;;;;;;;1.90;1.80;;;18.20;99.90;;;;;;5164744;27;20769;-41
2021/06/04 05:56:58;;;;;;;1.90;1.50;;;18.20;99.90;;;;;;5162960;27;20459;-41
2021/06/04 05:59:29;;;;;;;2.60;1.97;;;18.10;99.90;;;;;;5164682;27;20440;-41
2021/06/04 06:01:59;;;;;;;2.17;1.70;;;18.00;99.90;;;;;;5165507;27;20426;-41
2021/06/04 06:04:32;;;;;;;1.90;1.80;;;17.90;99.90;;;;;;5164922;27;20451;-41
2021/06/04 06:07:02;;;;;;;2.07;1.60;;;17.80;99.90;;;;;;5165001;27;20476;-41
2021/06/04 06:09:35;;;;;;;2.93;1.70;;;17.70;99.90;;;;;;5153244;27;20467;-41
2021/06/04 06:12:07;;;;;;;2.07;1.80;;;17.70;99.90;;;;;;5164452;27;20440;-40
2021/06/04 06:14:37;;;;;;;3.40;1.60;;;17.70;99.90;;;;;;5163683;27;20439;-42
2021/06/04 06:17:08;;;;;;;1.70;1.60;;;17.60;99.90;;;;;;5160086;27;20481;-41
2021/06/04 06:19:40;;;;;;;2.20;1.90;;;17.50;99.90;;;;;;5152624;27;20443;-41
2021/06/04 06:22:12;;;;;;;3.70;2.17;;;17.40;99.90;;;;;;5164712;27;20471;-41
2021/06/04 06:24:42;;;;;;;2.73;1.80;;;17.40;99.90;;;;;;5164480;27;20448;-41
2021/06/04 06:27:13;;;;;;;2.00;1.77;;;17.40;99.90;;;;;;5149305;27;20567;-41
2021/06/04 06:29:43;;;;;;;2.40;1.80;;;17.30;99.90;;;;;;5164325;27;20835;-40
2021/06/04 06:32:19;;;;;;;2.50;1.87;;;17.30;99.90;;;;;;5164925;27;20531;-41
2021/06/04 06:34:51;;;;;;;1.83;1.73;;;17.20;99.90;;;;;;5164127;27;20448;-41
2021/06/04 06:37:23;;;;;;;2.30;1.83;;;17.10;99.90;;;;;;5148670;27;20579;-41
2021/06/04 06:39:53;;;;;;;1.70;1.60;;;17.10;99.90;;;;;;5164429;27;20443;-41
2021/06/04 06:42:25;;;;;;;2.57;1.70;;;17.00;99.90;;;;;;5161605;27;20492;-41
2021/06/04 06:44:55;;;;;;;2.30;2.07;;;17.10;99.90;;;;;;5163532;27;20447;-41
2021/06/04 06:47:26;;;;;;;2.40;2.17;;;17.10;99.90;;;;;;5158583;27;20521;-41
2021/06/04 06:49:58;;;;;;;2.70;1.90;;;17.20;99.90;;;;;;5164155;27;20448;-41
2021/06/04 06:52:30;;;;;;;2.03;1.83;;;17.10;99.90;;;;;;5164147;27;20444;-41
2021/06/04 06:55:00;;;;;;;2.50;1.67;;;17.10;99.90;;;;;;5164132;27;20443;-41
2021/06/04 06:57:31;;;;;;;4.17;1.70;;;17.00;99.90;;;;;;5163537;27;20452;-41
2021/06/04 07:00:01;;;;;;;2.43;1.87;;;17.00;99.90;;;;;;5163673;27;20500;-40
2021/06/04 07:02:34;;;;;;;2.63;1.63;;;17.00;99.90;;;;;;5164733;27;20440;-41
2021/06/04 07:05:08;;;;;;;2.10;1.90;;;17.00;99.90;;;;;;5163777;27;20488;-40
2021/06/04 07:07:39;;;;;;;1.87;1.77;;;16.90;99.90;;;;;;5164310;27;20503;-40
2021/06/04 07:10:13;;;;;;;3.00;2.20;;;16.90;99.90;;;;;;5164232;27;20448;-41
2021/06/04 07:12:44;;;;;;;2.07;1.87;;;16.90;99.90;;;;;;5163309;27;20448;-41
2021/06/04 07:15:18;;;;;;;4.53;1.73;;;16.90;99.90;;;;;;5158515;27;20439;-40
2021/06/04 07:17:53;;;;;;;3.30;1.70;;;16.80;99.90;;;;;;5158027;27;20461;-41
2021/06/04 07:20:25;;;;;;;2.63;1.80;;;16.80;99.90;;;;;;5164116;27;20476;-41
2021/06/04 07:22:57;;;;;;;2.80;2.20;;;16.80;99.90;;;;;;5163872;27;20508;-41
2021/06/04 07:25:30;;;;;;;2.83;2.20;;;16.80;99.90;;;;;;5164137;27;20443;-41
2021/06/04 07:28:02;;;;;;;1.97;1.87;;;16.80;99.90;;;;;;5165731;27;20459;-41
2021/06/04 07:30:36;;;;;;;3.90;2.20;;;16.70;99.90;;;;;;5167931;27;20446;-41
2021/06/04 07:33:10;;;;;;;3.63;2.00;;;16.60;99.90;;;;;;5168282;27;20451;-41
2021/06/04 07:35:43;;;;;;;2.43;2.17;;;16.40;99.90;;;;;;5168063;27;20929;-41
2021/06/04 07:38:15;;;;;;;2.03;1.93;;;16.50;99.90;;;;;;5167588;27;20579;-41
2021/06/04 07:40:46;;;;;;;2.70;2.50;;;16.40;99.90;;;;;;5167863;27;20491;-41
2021/06/04 07:43:22;;;;;;;2.20;2.10;;;16.40;99.90;;;;;;5166716;27;20451;-41
2021/06/04 07:45:52;;;;;;;2.70;2.27;;;16.40;99.90;;;;;;5166157;27;20606;-41
2021/06/04 07:48:23;;;;;;;2.73;2.53;;;16.30;99.90;;;;;;5159350;27;20463;-41
2021/06/04 07:50:57;;;;;;;2.80;2.40;;;16.20;99.90;;;;;;5167927;27;20439;-41
2021/06/04 07:53:30;;;;;;;2.63;2.43;;;16.00;99.90;;;;;;5165904;27;20455;-41
2021/06/04 07:56:01;;;;;;;5.53;3.10;;;15.90;99.90;;;;;;5166835;27;20444;-41
2021/06/04 07:58:32;;;;;;;3.33;3.03;;;15.90;99.90;;;;;;5155994;27;20454;-41
2021/06/04 08:01:04;;;;;;;3.90;3.50;;;15.80;99.90;;;;;;5167418;27;20436;-41
2021/06/04 08:03:35;;;;;;;4.07;3.67;;;15.70;99.90;;;;;;5167650;27;20478;-41
2021/06/04 08:06:08;;;;;;;5.90;5.30;;;15.60;99.90;;;;;;5167139;27;20499;-41
2021/06/04 08:08:39;;;;;;;6.17;5.00;;;15.50;99.90;;;;;;5167232;27;20440;-41
2021/06/04 08:11:13;;;;;;;5.43;4.93;;;15.40;99.90;;;;;;5166513;27;20933;-41
2021/06/04 08:13:45;;;;;;;5.20;4.70;;;15.40;99.90;;;;;;5167246;27;20444;-41
2021/06/04 08:16:16;;;;;;;5.90;5.13;;;15.40;99.90;;;;;;5166046;27;20447;-41
2021/06/04 08:18:46;;;;;;;6.07;5.47;;;15.30;99.90;;;;;;5167242;27;20439;-41
2021/06/04 08:21:22;;;;;;;4.97;4.53;;;15.20;99.90;;;;;;5166880;27;20443;-40
2021/06/04 08:23:53;;;;;;;6.40;5.67;;;15.10;99.90;;;;;;5159184;27;20439;-41
2021/06/04 08:26:27;;;;;;;6.03;5.43;;;15.10;99.90;;;;;;5166228;27;20479;-41
2021/06/04 08:28:57;;;;;;;5.80;5.30;;;15.00;99.90;;;;;;5167270;27;20791;-41
2021/06/04 08:31:28;;;;;;;6.00;5.40;;;15.00;99.90;;;;;;5167133;27;20451;-41
2021/06/04 08:33:59;;;;;;;7.67;6.87;;;15.00;99.90;;;;;;5167012;27;20834;-41
2021/06/04 08:36:35;;;;;;;8.20;4.90;;;15.10;99.90;;;;;;5166421;27;20798;-40
2021/06/04 08:39:11;;;;;;;6.07;5.47;;;15.00;99.90;;;;;;5166187;27;20503;-41
2021/06/04 08:41:48;;;;;;;6.17;5.67;;;14.90;99.90;;;;;;5165504;27;20790;-41
2021/06/04 08:44:41;;;;;;;7.53;5.60;;;14.90;99.90;;;;;;5166661;27;20454;-41
2021/06/04 08:47:16;;;;;;;4.80;4.40;;;14.80;99.90;;;;;;5147329;27;20582;-40
2021/06/04 08:50:13;;;;;;;5.23;4.73;;;14.70;99.90;;;;;;5164362;27;20470;-41
2021/06/04 08:52:53;;;;;;;4.97;4.47;;;14.70;99.90;;;;;;5166583;27;20903;-40
2021/06/04 08:55:34;;;;;;;5.80;5.30;;;14.60;99.90;;;;;;5166460;27;20467;-41
2021/06/04 08:58:24;;;;;;;4.43;4.10;;;14.50;99.90;;;;;;5165536;27;20459;-40
2021/06/04 09:00:57;;;;;;;5.07;4.23;;;14.40;99.90;;;;;;5165937;27;20452;-40
2021/06/04 09:03:32;;;;;;;4.87;4.47;;;14.40;99.90;;;;;;5166290;27;20455;-40
2021/06/04 09:06:06;;;;;;;5.43;4.90;;;14.40;99.90;;;;;;5166225;27;20455;-40
2021/06/04 09:08:42;;;;;;;4.80;4.40;;;14.30;99.90;;;;;;5166235;27;20443;-39
2021/06/04 09:11:20;;;;;;;4.37;4.07;;;14.30;99.90;;;;;;5150230;27;20465;-40
2021/06/04 09:13:51;;;;;;;4.27;3.87;;;14.30;99.90;;;;;;5163708;27;20944;-41
2021/06/04 09:16:34;;;;;;;5.00;4.60;;;14.30;99.90;;;;;;5149807;27;20448;-41
2021/06/04 09:19:10;;;;;;;4.27;3.87;;;14.20;99.90;;;;;;5162318;27;20448;-41
2021/06/04 09:21:45;;;;;;;3.73;3.43;;;14.20;99.90;;;;;;5160694;27;20455;-41
2021/06/04 09:24:25;;;;;;;4.53;4.13;;;14.20;99.90;;;;;;5165914;27;20443;-41
2021/06/04 09:26:55;;;;;;;4.33;3.90;;;14.20;99.90;;;;;;5165734;27;20491;-41
2021/06/04 09:29:27;;;;;;;3.93;3.67;;;14.20;99.90;;;;;;5166227;27;20432;-41
2021/06/04 09:32:18;;;;;;;3.10;2.90;;;14.10;99.90;;;;;;5166302;27;20459;-41
2021/06/04 09:34:49;;;;;;;3.87;3.57;;;14.00;99.90;;;;;;5154620;27;20436;-40
2021/06/04 09:37:32;;;;;;;3.20;3.00;;;14.00;99.90;;;;;;5165185;27;20514;-40
2021/06/04 09:40:27;;;;;;;7.30;4.20;;;14.00;99.90;;;;;;5166325;27;20471;-41
2021/06/04 09:43:08;;;;;;;4.90;3.83;;;13.90;99.90;;;;;;5151485;27;20456;-41
2021/06/04 09:45:42;;;;;;;4.60;4.20;;;13.90;99.90;;;;;;5165840;27;20451;-41
2021/06/04 09:48:15;;;;;;;4.43;3.57;;;13.90;99.90;;;;;;5164823;27;20480;-41
2021/06/04 09:50:47;;;;;;;5.00;3.10;;;13.90;99.90;;;;;;5165762;27;20463;-40
2021/06/04 09:53:26;;;;;;;5.07;3.43;;;13.90;99.90;;;;;;5165648;27;20428;-40
2021/06/04 09:56:17;;;;;;;4.60;3.40;;;13.90;99.90;;;;;;5165307;27;20475;-40
2021/06/04 09:58:53;;;;;;;4.00;3.30;;;13.90;99.90;;;;;;5156760;27;20469;-41
2021/06/04 10:01:26;;;;;;;3.67;3.47;;;13.80;99.90;;;;;;5165381;27;20439;-41
2021/06/04 10:03:59;;;;;;;3.40;3.10;;;13.80;99.90;;;;;;5164697;27;20444;-41
2021/06/04 10:06:42;;;;;;;5.60;3.70;;;13.70;99.90;;;;;;5165100;27;20498;-41
2021/06/04 10:09:25;;;;;;;7.03;3.23;;;13.60;99.90;;;;;;5165520;27;20444;-41
2021/06/04 10:12:01;;;;;;;3.87;3.57;;;13.50;99.90;;;;;;5164021;27;20451;-40
2021/06/04 10:17:43;;;;;;;4.07;3.77;;;13.50;99.90;;;;;;5162100;27;20458;-40
2021/06/04 10:20:40;;;;;;;4.10;3.80;;;13.30;99.90;;;;;;5165305;27;20463;-40
2021/06/04 10:23:24;;;;;;;4.40;4.00;;;13.30;99.90;;;;;;5164497;27;20494;-41
2021/06/04 10:25:57;;;;;;;5.80;4.47;;;13.20;99.90;;;;;;5164814;27;20444;-41
2021/06/04 10:28:36;;;;;;;5.30;4.77;;;13.20;99.90;;;;;;5164585;27;20486;-40
2021/06/04 10:31:23;;;;;;;6.07;5.57;;;13.20;99.90;;;;;;5163604;27;20444;-41
2021/06/04 10:34:02;;;;;;;5.70;4.83;;;13.30;99.90;;;;;;5164563;27;20507;-41
2021/06/04 10:36:37;;;;;;;4.90;4.40;;;13.20;99.90;;;;;;5164566;27;20451;-40
2021/06/04 10:39:10;;;;;;;5.80;5.30;;;13.10;99.90;;;;;;5165061;27;20432;-40
2021/06/04 10:41:53;;;;;;;5.07;4.63;;;13.00;99.90;;;;;;5163346;27;20500;-41
2021/06/04 10:44:32;;;;;;;5.97;5.37;;;13.00;99.90;;;;;;5164885;27;20458;-41
2021/06/04 10:47:09;;;;;;;6.30;5.50;;;13.00;99.90;;;;;;5163799;27;20512;-41
2021/06/04 10:49:48;;;;;;;5.07;4.67;;;12.80;99.90;;;;;;5164533;27;20452;-41
2021/06/04 10:52:31;;;;;;;6.53;5.13;;;12.80;99.90;;;;;;5164749;27;20522;-40
2021/06/04 10:55:10;;;;;;;6.00;5.40;;;12.90;99.90;;;;;;5164300;27;20459;-42
2021/06/04 10:57:47;;;;;;;6.90;4.60;;;12.90;99.90;;;;;;5163782;27;20455;-42
2021/06/04 11:00:21;;;;;;;4.90;4.30;;;12.90;99.90;;;;;;5157855;27;20433;-40
2021/06/04 11:03:05;;;;;;;6.37;4.50;;;12.90;99.90;;;;;;5160215;27;20500;-40
2021/06/04 11:05:50;;;;;;;4.63;4.23;;;12.90;99.90;;;;;;5164691;27;20447;-41
2021/06/04 11:08:43;;;;;;;3.63;3.37;;;12.90;99.90;;;;;;5164251;27;20515;-41
2021/06/04 11:11:33;;;;;;;6.00;4.10;;;12.90;99.90;;;;;;5163289;27;20448;-41
2021/06/04 11:14:28;;;;;;;3.37;3.07;;;12.90;99.90;;;;;;5152388;27;20451;-41
2021/06/04 11:17:09;;;;;;;3.57;3.23;;;12.90;99.90;;;;;;5163684;27;20463;-41
2021/06/04 11:19:44;;;;;;;3.43;3.13;;;12.90;99.90;;;;;;5150214;27;20467;-41
2021/06/04 11:22:19;;;;;;;3.50;3.10;;;12.90;99.90;;;;;;5164438;27;20448;-40
2021/06/04 11:24:58;;;;;;;3.50;3.20;;;12.90;99.90;;;;;;5164654;27;20499;-41
2021/06/04 11:27:34;;;;;;;4.97;2.93;;;12.90;99.90;;;;;;5163940;27;20519;-40
2021/06/04 11:30:08;;;;;;;5.37;3.10;;;12.90;99.90;;;;;;5163975;27;20926;-41
2021/06/04 11:32:49;;;;;;;3.70;2.80;;;12.90;99.90;;;;;;5163723;27;20480;-41
2021/06/04 11:35:25;;;;;;;3.33;3.03;;;12.90;99.90;;;;;;5164179;27;20483;-41
2021/06/04 11:38:01;;;;;;;4.50;2.87;;;12.80;99.90;;;;;;5163888;27;20502;-41
2021/06/04 11:40:34;;;;;;;3.33;2.40;;;12.80;99.90;;;;;;5164235;27;20439;-41
2021/06/04 11:43:10;;;;;;;3.73;3.40;;;12.80;99.90;;;;;;5163245;27;20528;-41
2021/06/04 11:45:41;;;;;;;3.40;3.20;;;12.90;99.90;;;;;;5164361;27;20472;-41
2021/06/04 11:48:38;;;;;;;2.60;2.40;;;13.00;99.90;;;;;;5163118;27;20507;-41
2021/06/04 11:51:51;;;;;;;3.90;2.77;;;13.00;99.90;;;;;;5161337;27;20568;-40
2021/06/04 11:54:38;;;;;;;2.60;2.40;;;13.00;99.90;;;;;;5155128;27;20467;-41
2021/06/04 11:57:45;;;;;;;2.77;2.43;;;13.10;99.90;;;;;;5163274;27;20444;-41
2021/06/04 12:00:45;;;;;;;3.20;2.90;;;13.10;99.90;;;;;;5160132;27;20512;-40
2021/06/04 12:03:35;;;;;;;2.73;2.60;;;13.20;99.90;;;;;;5161060;27;21001;-41
2021/06/04 12:06:48;;;;;;;2.53;2.33;;;13.30;99.90;;;;;;5163595;27;20531;-41
2021/06/04 12:09:44;;;;;;;3.10;2.40;;;13.30;99.90;;;;;;5163433;27;20491;-41
2021/06/04 12:12:53;;;;;;;2.90;2.70;;;13.30;99.90;;;;;;5162602;27;20471;-40
2021/06/04 12:15:43;;;;;;;2.50;2.30;;;13.40;99.90;;;;;;5166802;27;20456;-40
2021/06/04 12:18:51;;;;;;;2.97;2.77;;;13.40;99.90;;;;;;5166863;27;20444;-41
2021/06/04 12:21:57;;;;;;;5.30;3.30;;;13.40;99.90;;;;;;5167271;27;20451;-41
2021/06/04 12:25:03;;;;;;;3.37;2.90;;;13.50;99.90;;;;;;5163382;27;20487;-40
2021/06/04 12:28:03;;;;;;;3.57;3.27;;;13.60;99.90;;;;;;5162970;27;20571;-40
2021/06/04 12:31:15;;;;;;;2.70;2.50;;;13.50;99.90;;;;;;5162184;27;20451;-40
2021/06/04 12:34:05;;;;;;;2.80;2.50;;;13.60;99.90;;;;;;5165667;27;20459;-41
2021/06/04 12:36:55;;;;;;;3.33;2.70;;;13.50;99.90;;;;;;5166800;27;20479;-40
2021/06/04 12:39:50;;;;;;;2.67;2.30;;;13.40;99.90;;;;;;5166815;27;20477;-41
2021/06/04 12:42:42;;;;;;;3.73;2.97;;;13.40;99.90;;;;;;5156754;27;20600;-41
2021/06/04 12:45:22;;;;;;;2.70;2.47;;;13.40;99.90;;;;;;5157663;27;20512;-40
2021/06/04 12:47:56;;;;;;;3.13;2.90;;;13.20;99.90;;;;;;5165890;27;20487;-42
2021/06/04 12:50:31;;;;;;;3.20;3.00;;;13.20;99.90;;;;;;5166814;27;20440;-42
2021/06/04 12:53:14;;;;;;;3.00;2.60;;;13.20;99.90;;;;;;5167078;27;20512;-41
2021/06/04 12:55:49;;;;;;;3.60;3.03;;;13.10;99.90;;;;;;5166840;27;20475;-41
2021/06/04 12:58:27;;;;;;;3.03;2.73;;;13.10;99.90;;;;;;5165734;27;20772;-41
2021/06/04 13:01:09;;;;;;;3.40;3.10;;;13.10;99.90;;;;;;5158509;27;20444;-41
2021/06/04 13:03:43;;;;;;;3.17;2.73;;;13.00;99.90;;;;;;5163387;27;20455;-41
2021/06/04 13:06:17;;;;;;;2.70;2.50;;;13.00;99.90;;;;;;5165581;27;20472;-41
2021/06/04 13:08:48;;;;;;;2.80;2.60;;;13.00;99.90;;;;;;5166266;27;20543;-41
2021/06/04 13:11:37;;;;;;;5.63;2.60;;;12.90;99.90;;;;;;5166235;27;20460;-40
2021/06/04 13:14:26;;;;;;;3.23;2.17;;;12.90;99.90;;;;;;5166626;27;20433;-40
2021/06/04 13:17:09;;;;;;;4.43;3.17;;;12.90;99.90;;;;;;5166443;27;20444;-40
2021/06/04 13:19:40;;;;;;;5.53;2.60;;;12.80;99.90;;;;;;5163922;27;20452;-40
2021/06/04 13:22:22;;;;;;;2.73;2.50;;;12.80;99.90;;;;;;5165916;27;20470;-40
2021/06/04 13:24:57;;;;;;;3.23;2.47;;;12.80;99.90;;;;;;5165725;27;20479;-41
2021/06/04 13:27:31;;;;;;;2.87;2.50;;;12.80;99.90;;;;;;5164904;27;20455;-41
2021/06/04 13:30:05;;;;;;;4.43;2.60;;;12.70;99.90;;;;;;5162393;27;20542;-40
2021/06/04 13:32:37;;;;;;;3.50;2.87;;;12.80;99.90;;;;;;5154254;27;20479;-41
2021/06/04 13:35:14;;;;;;;4.80;2.80;;;12.80;99.90;;;;;;5165939;27;20448;-41
2021/06/04 13:37:51;;;;;;;3.07;2.77;;;12.80;99.90;;;;;;5165437;27;20993;-41
2021/06/04 13:40:25;;;;;;;3.67;2.63;;;12.80;99.90;;;;;;5158480;27;20500;-38
2021/06/04 13:43:01;;;;;;;2.60;2.40;;;12.70;99.90;;;;;;5164408;27;20452;-41